Portada
METAR-TAF:

METAR-TAF

Aeroports :

Labuan, Malàisia

latitud: 05-18N, longitud: 115-15E, altitud: 30 m

Observació

L'informe es va fer fa 52 minuts, a les 15:00 UTC
Vent calma
Temperatura 28°C
Humitat 94%
Pressió 1009 hPa
Visibilitat 10 km o més
Escasses núvols a una alçada de 1700 ft, Cumulonimbus.
tempesta,

METAR: WBKL 221500Z 00000KT 9999 TS FEW017CB 28/27 Q1009

Hora: 23:52 (15:52 UTC)

Pronòstic

L'informe es va fer fa 4 hores i 52 minuts, a les 11:00 UTC
Pronòstic vàlid del 22 a les 12 UTC al 23 a les 12 UTC
Vent 3 kt amb direcció variable
Visibilitat 10 km o més
Escasses núvols a una alçada de 1500 ft

TAF: WBKL 221100Z 2212/2312 VRB03KT 9999 FEW015

Observacions i pronòstics meteorològics de més de 4000 aeroports (METAR i TAF).

Les estacions disponibles són els punts grocs i vermells al mapa.

Posi el ratolí al punt desitjat per veure el nom de l'estació.

Feu clic per veure les observacions i els pronòstics meteorològics.

Per canviar el mapa: feu clic els botons verds amb una creu de color negre per apropar; al botó verd amb un guió per allunyar la imatge; o en les fletxes verdes per a mapes adjacents.


METAR-TAF: